createdAt,value
2019-01-21T00:01:00.540Z,101051.91
2019-01-21T00:03:30.288Z,101049.45
2019-01-21T00:05:59.859Z,101058.27
2019-01-21T00:08:29.357Z,101049.58
2019-01-21T00:10:58.954Z,101049.30
2019-01-21T00:13:28.451Z,101058.03
2019-01-21T00:15:57.960Z,101060.48
2019-01-21T00:18:27.500Z,101061.20
2019-01-21T00:20:57.020Z,101069.89
2019-01-21T00:23:26.533Z,101062.62
2019-01-21T00:25:56.209Z,101063.42
2019-01-21T00:28:25.721Z,101058.15
2019-01-21T00:30:55.232Z,101064.80
2019-01-21T00:33:24.775Z,101069.66
2019-01-21T00:35:54.365Z,101071.43
2019-01-21T00:38:23.874Z,101078.36
2019-01-21T00:40:54.939Z,101073.32
2019-01-21T00:43:24.451Z,101075.17
2019-01-21T00:45:53.999Z,101075.34
2019-01-21T00:48:23.529Z,101073.65
2019-01-21T00:50:53.079Z,101079.32
2019-01-21T00:53:22.640Z,101084.23
2019-01-21T00:55:52.178Z,101082.18
2019-01-21T00:58:21.723Z,101088.22
2019-01-21T01:00:51.313Z,101087.94
2019-01-21T01:03:20.857Z,101083.80
2019-01-21T01:05:50.413Z,101081.05
2019-01-21T01:08:20.025Z,101083.30
2019-01-21T01:10:49.722Z,101076.79
2019-01-21T01:13:19.247Z,101077.34
2019-01-21T01:15:48.802Z,101086.94
2019-01-21T01:18:18.343Z,101084.69
2019-01-21T01:20:47.890Z,101081.34
2019-01-21T01:23:17.472Z,101086.53
2019-01-21T01:25:47.033Z,101083.34
2019-01-21T01:28:16.713Z,101085.99
2019-01-21T01:30:46.332Z,101090.04
2019-01-21T01:33:15.862Z,101079.95
2019-01-21T01:35:45.382Z,101081.69
2019-01-21T01:38:14.940Z,101079.08
2019-01-21T01:40:44.466Z,101077.67
2019-01-21T01:43:14.115Z,101081.82
2019-01-21T01:45:44.191Z,101086.09
2019-01-21T01:48:13.778Z,101076.22
2019-01-21T01:50:43.416Z,101078.92
2019-01-21T01:53:14.090Z,101082.58
2019-01-21T01:55:43.904Z,101079.36
2019-01-21T01:58:13.484Z,101075.21
2019-01-21T02:00:43.266Z,101081.09
2019-01-21T02:03:12.794Z,101079.27
2019-01-21T02:05:42.297Z,101085.91
2019-01-21T02:08:11.855Z,101085.86
2019-01-21T02:10:41.372Z,101089.44
2019-01-21T02:13:10.979Z,101084.73
2019-01-21T02:15:40.542Z,101083.94
2019-01-21T02:18:10.050Z,101079.67
2019-01-21T02:20:40.216Z,101081.70
2019-01-21T02:23:16.405Z,101094.89
2019-01-21T02:25:51.299Z,101097.11
2019-01-21T02:29:11.014Z,101102.17
2019-01-21T02:32:32.345Z,101098.91
2019-01-21T02:35:31.944Z,101108.10
2019-01-21T02:38:30.771Z,101097.66
2019-01-21T02:41:14.311Z,101093.30
2019-01-21T02:44:30.884Z,101097.17
2019-01-21T02:47:24.564Z,101100.36
2019-01-21T02:50:36.825Z,101097.02
2019-01-21T02:53:30.257Z,101099.77
2019-01-21T02:56:27.436Z,101106.05
2019-01-21T02:59:33.588Z,101111.77
2019-01-21T03:02:57.636Z,101116.08
2019-01-21T03:06:17.222Z,101116.13
2019-01-21T03:09:42.892Z,101122.28
2019-01-21T03:13:08.729Z,101121.68
2019-01-21T03:16:40.051Z,101115.84
2019-01-21T03:19:38.606Z,101123.62
2019-01-21T03:22:51.527Z,101124.70
2019-01-21T03:26:16.766Z,101125.54
2019-01-21T03:29:23.075Z,101128.00
2019-01-21T03:32:39.531Z,101129.45
2019-01-21T03:35:52.381Z,101133.44
2019-01-21T03:38:49.912Z,101137.70
2019-01-21T03:41:32.687Z,101149.20
2019-01-21T03:44:32.072Z,101154.80
2019-01-21T03:47:40.995Z,101153.19
2019-01-21T03:50:53.510Z,101158.38
2019-01-21T03:53:53.271Z,101154.38
2019-01-21T03:56:44.439Z,101167.55
2019-01-21T03:59:50.879Z,101168.64
2019-01-21T04:02:56.935Z,101167.75
2019-01-21T04:05:44.835Z,101172.06
2019-01-21T04:08:44.132Z,101176.56
2019-01-21T04:11:42.601Z,101183.55
2019-01-21T04:15:23.244Z,101183.52
2019-01-21T04:18:31.980Z,101188.38
2019-01-21T04:21:34.382Z,101192.42
2019-01-21T04:25:03.103Z,101186.98
2019-01-21T04:27:54.490Z,101186.91
2019-01-21T04:30:56.879Z,101188.52
2019-01-21T04:34:01.421Z,101186.97
2019-01-21T04:37:26.081Z,101188.06
2019-01-21T04:40:26.543Z,101194.74
2019-01-21T04:43:25.137Z,101200.72
2019-01-21T04:46:50.869Z,101203.42
2019-01-21T04:50:05.949Z,101211.75
2019-01-21T04:53:10.055Z,101215.91
2019-01-21T04:56:32.387Z,101210.43
2019-01-21T05:00:01.123Z,101225.90
2019-01-21T05:03:05.671Z,101232.40
2019-01-21T05:06:03.524Z,101247.08
2019-01-21T05:09:27.719Z,101248.72
2019-01-21T05:12:43.910Z,101246.31
2019-01-21T05:16:03.586Z,101254.56
2019-01-21T05:19:14.036Z,101254.44
2019-01-21T05:22:02.299Z,101275.45
2019-01-21T05:25:11.129Z,101262.68
2019-01-21T05:28:10.057Z,101269.05
2019-01-21T05:31:08.887Z,101261.08
2019-01-21T05:34:14.056Z,101275.22
2019-01-21T05:37:08.874Z,101270.45
2019-01-21T05:40:15.340Z,101272.12
2019-01-21T05:43:09.445Z,101262.27
2019-01-21T05:46:05.757Z,101266.56
2019-01-21T05:49:30.346Z,101263.36
2019-01-21T05:53:04.799Z,101266.81
2019-01-21T05:56:30.037Z,101265.59
2019-01-21T05:59:51.466Z,101275.55
2019-01-21T06:03:07.832Z,101275.29
2019-01-21T06:06:11.368Z,101271.52
2019-01-21T06:09:08.944Z,101279.64
2019-01-21T06:12:18.672Z,101288.08
2019-01-21T06:15:32.103Z,101295.78
2019-01-21T06:18:26.069Z,101291.61
2019-01-21T06:21:33.654Z,101300.54
2019-01-21T06:24:56.073Z,101302.76
2019-01-21T06:28:01.742Z,101304.05
2019-01-21T06:31:11.152Z,101310.30
2019-01-21T06:34:32.766Z,101310.80
2019-01-21T06:37:43.061Z,101315.30
2019-01-21T06:41:01.181Z,101327.67
2019-01-21T06:44:01.093Z,101328.55
2019-01-21T06:47:08.650Z,101328.47
2019-01-21T06:50:01.838Z,101340.09
2019-01-21T06:53:01.196Z,101339.14
2019-01-21T06:56:10.346Z,101336.44
2019-01-21T06:59:17.849Z,101337.63
2019-01-21T07:02:11.950Z,101345.23
2019-01-21T07:05:18.242Z,101348.88
2019-01-21T07:08:36.543Z,101358.63
2019-01-21T07:12:01.754Z,101356.44
2019-01-21T07:15:18.566Z,101356.24
2019-01-21T07:18:26.058Z,101355.86
2019-01-21T07:21:31.349Z,101357.62
2019-01-21T07:24:40.625Z,101357.80
2019-01-21T07:27:47.386Z,101360.78
2019-01-21T07:30:47.494Z,101362.61
2019-01-21T07:33:46.020Z,101362.45
2019-01-21T07:36:59.095Z,101363.30
2019-01-21T07:40:21.250Z,101369.41
2019-01-21T07:43:26.275Z,101374.11
2019-01-21T07:46:17.100Z,101382.69
2019-01-21T07:49:24.202Z,101386.09
2019-01-21T07:52:29.085Z,101396.75
2019-01-21T07:55:38.779Z,101395.55
2019-01-21T07:58:55.180Z,101401.02
2019-01-21T08:01:45.473Z,101401.37
2019-01-21T08:04:35.276Z,101411.39
2019-01-21T08:07:30.523Z,101421.98
2019-01-21T08:10:35.633Z,101430.52
2019-01-21T08:13:25.329Z,101434.09
2019-01-21T08:16:31.646Z,101429.81
2019-01-21T08:19:39.305Z,101430.19
2019-01-21T08:22:59.053Z,101436.00
2019-01-21T08:26:21.580Z,101442.27
2019-01-21T08:29:08.712Z,101454.55
2019-01-21T08:32:10.009Z,101452.39
2019-01-21T08:35:07.167Z,101452.26
2019-01-21T08:38:31.268Z,101454.13
2019-01-21T08:41:38.926Z,101451.98
2019-01-21T08:45:04.547Z,101462.80
2019-01-21T08:48:26.894Z,101461.77
2019-01-21T08:51:37.731Z,101461.13
2019-01-21T08:54:47.850Z,101463.95
2019-01-21T08:57:49.164Z,101464.88
2019-01-21T09:00:42.262Z,101463.86
2019-01-21T09:03:49.027Z,101464.44
2019-01-21T09:07:00.553Z,101471.02
2019-01-21T09:10:16.042Z,101475.17
2019-01-21T09:13:19.888Z,101479.26
2019-01-21T09:16:08.091Z,101444.43
2019-01-21T09:18:53.733Z,101471.61
2019-01-21T09:22:01.312Z,101472.29
2019-01-21T09:25:09.623Z,101474.16
2019-01-21T09:28:09.699Z,101470.61
2019-01-21T09:31:44.189Z,101467.96
2019-01-21T09:34:41.141Z,101465.56
2019-01-21T09:37:46.256Z,101464.36
2019-01-21T09:41:04.213Z,101463.08
2019-01-21T09:44:13.602Z,101464.33
2019-01-21T09:46:53.496Z,101458.14
2019-01-21T09:49:21.156Z,101456.64
2019-01-21T09:52:11.891Z,101452.99
2019-01-21T09:54:42.444Z,101460.20
2019-01-21T09:57:27.994Z,101447.09
2019-01-21T10:00:01.591Z,101453.20
2019-01-21T10:02:42.461Z,101450.50
2019-01-21T10:05:14.193Z,101451.25
2019-01-21T10:08:06.265Z,101455.07
2019-01-21T10:11:25.814Z,101442.47
2019-01-21T10:14:23.134Z,101436.38
2019-01-21T10:17:27.886Z,101436.80
2019-01-21T10:20:46.978Z,101440.37
2019-01-21T10:23:54.642Z,101435.14
2019-01-21T10:26:59.658Z,101438.85
2019-01-21T10:29:51.336Z,101437.72
2019-01-21T10:33:13.563Z,101436.87
2019-01-21T10:36:18.538Z,101423.40
2019-01-21T10:39:26.409Z,101424.78
2019-01-21T10:42:55.174Z,101439.82
2019-01-21T10:45:34.799Z,101439.50
2019-01-21T10:48:14.723Z,101437.10
2019-01-21T10:51:06.922Z,101441.08
2019-01-21T10:53:59.339Z,101432.57
2019-01-21T10:56:44.651Z,101431.08
2019-01-21T10:59:36.292Z,101443.54
2019-01-21T11:02:47.673Z,101457.00
2019-01-21T11:05:39.142Z,101454.41
2019-01-21T11:08:37.732Z,101434.77
2019-01-21T11:12:10.769Z,101442.62
2019-01-21T11:15:13.112Z,101443.13
2019-01-21T11:18:23.291Z,101432.80
2019-01-21T11:21:23.032Z,101411.64
2019-01-21T11:24:16.969Z,101442.64
2019-01-21T11:27:20.102Z,101432.42
2019-01-21T11:30:19.236Z,101413.38
2019-01-21T11:33:19.399Z,101428.83
2019-01-21T11:36:15.284Z,101424.42
2019-01-21T11:39:08.659Z,101422.28
2019-01-21T11:41:53.706Z,101406.61
2019-01-21T11:45:23.325Z,101425.66
2019-01-21T11:48:33.257Z,101411.62
2019-01-21T11:51:29.794Z,101427.73
2019-01-21T11:54:08.327Z,101422.31
2019-01-21T11:57:11.636Z,101455.88
2019-01-21T11:59:54.274Z,101414.27
2019-01-21T12:03:03.457Z,101452.73
2019-01-21T12:06:07.193Z,101465.94
2019-01-21T12:09:07.536Z,101463.59
2019-01-21T12:11:54.631Z,101469.55
2019-01-21T12:14:54.683Z,101467.53
2019-01-21T12:18:10.366Z,101494.42
2019-01-21T12:21:08.016Z,101466.33
2019-01-21T12:24:18.363Z,101443.86
2019-01-21T12:27:25.875Z,101467.73
2019-01-21T12:30:35.233Z,101483.91
2019-01-21T12:33:51.708Z,101485.19
2019-01-21T12:36:36.610Z,101482.99
2019-01-21T12:39:45.577Z,101478.39
2019-01-21T12:43:08.851Z,101487.92
2019-01-21T12:46:09.589Z,101498.37
2019-01-21T12:49:25.683Z,101485.22
2019-01-21T12:52:23.847Z,101506.95
2019-01-21T12:55:21.295Z,101515.88
2019-01-21T12:58:28.225Z,101526.00
2019-01-21T13:01:37.504Z,101512.13
2019-01-21T13:04:48.440Z,101516.38
2019-01-21T13:07:39.138Z,101510.65
2019-01-21T13:10:55.555Z,101501.56
2019-01-21T13:14:17.736Z,101533.28
2019-01-21T13:16:53.233Z,101536.86
2019-01-21T13:20:09.683Z,101551.23
2019-01-21T13:23:30.111Z,101545.52
2019-01-21T13:26:28.653Z,101545.89
2019-01-21T13:29:25.282Z,101552.82
2019-01-21T13:32:19.863Z,101559.88
2019-01-21T13:35:29.358Z,101527.80
2019-01-21T13:38:29.913Z,101548.16
2019-01-21T13:41:37.209Z,101587.50
2019-01-21T13:44:44.583Z,101582.87
2019-01-21T13:48:03.732Z,101566.59
2019-01-21T13:51:09.806Z,101550.22
2019-01-21T13:54:13.716Z,101555.83
2019-01-21T13:57:34.612Z,101539.47
2019-01-21T14:00:41.922Z,101600.28
2019-01-21T14:03:23.281Z,101603.04
2019-01-21T14:06:52.395Z,101596.69
2019-01-21T14:09:53.519Z,101620.07
2019-01-21T14:13:06.729Z,101575.45
2019-01-21T14:15:48.359Z,101611.37
2019-01-21T14:18:46.085Z,101588.80
2019-01-21T14:22:11.324Z,101612.66
2019-01-21T14:25:25.326Z,101601.32
2019-01-21T14:28:32.236Z,101601.25
2019-01-21T14:31:32.284Z,101605.78
2019-01-21T14:34:44.435Z,101620.52
2019-01-21T14:37:52.040Z,101605.17
2019-01-21T14:41:07.686Z,101610.61
2019-01-21T14:44:27.085Z,101625.32
2019-01-21T14:47:19.321Z,101603.16
2019-01-21T14:49:58.911Z,101612.66
2019-01-21T14:53:07.632Z,101624.63
2019-01-21T14:56:01.961Z,101621.52
2019-01-21T14:58:56.377Z,101641.06
2019-01-21T15:02:02.494Z,101624.08
2019-01-21T15:04:52.624Z,101631.36
2019-01-21T15:08:03.939Z,101625.52
2019-01-21T15:11:24.593Z,101644.44
2019-01-21T15:14:24.617Z,101635.89
2019-01-21T15:17:50.209Z,101647.13
2019-01-21T15:20:32.539Z,101643.41
2019-01-21T15:23:34.125Z,101641.27
2019-01-21T15:26:44.291Z,101633.71
2019-01-21T15:30:08.240Z,101639.75
2019-01-21T15:33:28.948Z,101656.54
2019-01-21T15:36:30.606Z,101662.58
2019-01-21T15:39:37.616Z,101660.94
2019-01-21T15:42:35.435Z,101661.90
2019-01-21T15:45:56.591Z,101673.02
2019-01-21T15:49:05.597Z,101672.53
2019-01-21T15:52:25.001Z,101688.55
2019-01-21T15:55:40.672Z,101703.92
2019-01-21T15:58:57.856Z,101699.69
2019-01-21T16:02:01.523Z,101699.27
2019-01-21T16:05:04.533Z,101698.48
2019-01-21T16:08:18.653Z,101706.59
2019-01-21T16:11:11.319Z,101708.73
2019-01-21T16:13:45.925Z,101708.66
2019-01-21T16:16:43.227Z,101715.13
2019-01-21T16:19:42.284Z,101703.60
2019-01-21T16:22:47.584Z,101704.13
2019-01-21T16:25:37.781Z,101710.61
2019-01-21T16:28:23.436Z,101719.50
2019-01-21T16:31:14.540Z,101724.99
2019-01-21T16:34:30.676Z,101725.47
2019-01-21T16:37:17.450Z,101727.56
2019-01-21T16:40:40.552Z,101730.12
2019-01-21T16:43:10.114Z,101737.72
2019-01-21T16:45:41.066Z,101739.80
2019-01-21T16:48:10.749Z,101742.22
2019-01-21T16:50:40.318Z,101751.05
2019-01-21T16:53:11.083Z,101753.49
2019-01-21T16:55:40.591Z,101753.88
2019-01-21T16:58:10.099Z,101755.05
2019-01-21T17:00:39.664Z,101751.03
2019-01-21T17:03:09.215Z,101746.38
2019-01-21T17:05:38.802Z,101746.33
2019-01-21T17:08:08.361Z,101756.16
2019-01-21T17:10:39.249Z,101757.33
2019-01-21T17:13:08.908Z,101755.57
2019-01-21T17:15:38.423Z,101752.27
2019-01-21T17:18:09.360Z,101758.08
2019-01-21T17:20:38.870Z,101747.00
2019-01-21T17:23:08.380Z,101741.50
2019-01-21T17:25:39.160Z,101758.19
2019-01-21T17:28:08.671Z,101748.24
2019-01-21T17:30:38.180Z,101757.33
2019-01-21T17:33:07.735Z,101765.39
2019-01-21T17:35:37.401Z,101760.80
2019-01-21T17:38:06.948Z,101757.77
2019-01-21T17:40:37.753Z,101748.24
2019-01-21T17:43:07.331Z,101764.86
2019-01-21T17:45:36.823Z,101761.81
2019-01-21T17:48:06.482Z,101757.76
2019-01-21T17:50:37.313Z,101764.00
2019-01-21T17:53:06.863Z,101764.42
2019-01-21T17:55:36.464Z,101764.18
2019-01-21T17:58:06.047Z,101765.20
2019-01-21T18:00:35.545Z,101770.70
2019-01-21T18:03:05.210Z,101762.95
2019-01-21T18:05:34.876Z,101767.59
2019-01-21T18:08:04.497Z,101763.86
2019-01-21T18:10:34.047Z,101772.03
2019-01-21T18:13:03.571Z,101776.64
2019-01-21T18:15:33.086Z,101767.91
2019-01-21T18:18:02.650Z,101762.05
2019-01-21T18:20:32.161Z,101766.73
2019-01-21T18:23:01.872Z,101758.68
2019-01-21T18:25:31.433Z,101769.84
2019-01-21T18:28:00.939Z,101774.55
2019-01-21T18:30:30.960Z,101779.95
2019-01-21T18:33:00.528Z,101781.28
2019-01-21T18:35:32.438Z,101785.92
2019-01-21T18:38:03.313Z,101784.41
2019-01-21T18:40:33.337Z,101783.30
2019-01-21T18:43:02.850Z,101793.77
2019-01-21T18:45:32.631Z,101795.90
2019-01-21T18:48:02.139Z,101798.72
2019-01-21T18:50:31.825Z,101798.95
2019-01-21T18:53:01.439Z,101797.26
2019-01-21T18:55:30.995Z,101800.31
2019-01-21T18:58:01.836Z,101798.16
2019-01-21T19:00:31.352Z,101794.44
2019-01-21T19:03:00.968Z,101800.73
2019-01-21T19:05:30.558Z,101802.45
2019-01-21T19:08:00.065Z,101797.32
2019-01-21T19:10:29.580Z,101801.77
2019-01-21T19:12:59.164Z,101805.44
2019-01-21T19:15:34.886Z,101794.25
2019-01-21T19:18:05.739Z,101799.86
2019-01-21T19:20:35.284Z,101803.30
2019-01-21T19:23:04.852Z,101802.94
2019-01-21T19:25:35.711Z,101800.25
2019-01-21T19:28:06.645Z,101790.46
2019-01-21T19:30:36.174Z,101805.02
2019-01-21T19:33:05.841Z,101802.09
2019-01-21T19:35:39.622Z,101800.44
2019-01-21T19:38:09.157Z,101806.53
2019-01-21T19:40:39.978Z,101804.15
2019-01-21T19:43:09.537Z,101804.88
2019-01-21T19:45:39.060Z,101799.82
2019-01-21T19:48:09.890Z,101804.95
2019-01-21T19:50:39.387Z,101814.77
2019-01-21T19:53:08.933Z,101812.63
2019-01-21T19:55:40.957Z,101819.48
2019-01-21T19:58:11.422Z,101821.08
2019-01-21T20:00:40.952Z,101813.02
2019-01-21T20:03:11.855Z,101821.13
2019-01-21T20:05:41.448Z,101824.25
2019-01-21T20:08:10.993Z,101829.91
2019-01-21T20:10:40.521Z,101823.13
2019-01-21T20:13:10.149Z,101829.02
2019-01-21T20:15:39.713Z,101825.53
2019-01-21T20:18:09.314Z,101820.83
2019-01-21T20:20:40.986Z,101825.48
2019-01-21T20:23:10.587Z,101817.34
2019-01-21T20:25:40.112Z,101816.17
2019-01-21T20:28:11.217Z,101815.48
2019-01-21T20:30:40.781Z,101819.23
2019-01-21T20:33:10.321Z,101818.97
2019-01-21T20:35:39.908Z,101825.09
2019-01-21T20:38:09.429Z,101813.28
2019-01-21T20:40:38.933Z,101811.62
2019-01-21T20:43:09.691Z,101827.39
2019-01-21T20:45:39.258Z,101827.91
2019-01-21T20:48:09.994Z,101823.69
2019-01-21T20:50:39.587Z,101820.97
2019-01-21T20:53:09.102Z,101819.94
2019-01-21T20:55:38.632Z,101834.88
2019-01-21T20:58:08.297Z,101831.19
2019-01-21T21:00:37.907Z,101831.72
2019-01-21T21:03:07.410Z,101835.27
2019-01-21T21:05:36.968Z,101826.05
2019-01-21T21:08:06.541Z,101841.47
2019-01-21T21:10:36.120Z,101847.84
2019-01-21T21:13:05.724Z,101848.73
2019-01-21T21:15:36.558Z,101841.94
2019-01-21T21:18:06.185Z,101849.63
2019-01-21T21:20:35.720Z,101848.73
2019-01-21T21:23:05.213Z,101853.04
2019-01-21T21:25:34.720Z,101847.80
2019-01-21T21:28:05.233Z,101844.42
2019-01-21T21:30:34.979Z,101841.77
2019-01-21T21:33:04.967Z,101847.80
2019-01-21T21:35:34.460Z,101840.14
2019-01-21T21:38:05.299Z,101849.67
2019-01-21T21:40:34.802Z,101849.54
2019-01-21T21:43:04.454Z,101850.01
2019-01-21T21:45:34.047Z,101844.33
2019-01-21T21:48:03.546Z,101851.13
2019-01-21T21:50:33.885Z,101844.50
2019-01-21T21:53:03.393Z,101846.67
2019-01-21T21:55:32.908Z,101850.13
2019-01-21T21:58:02.570Z,101844.58
2019-01-21T22:00:32.177Z,101847.11
2019-01-21T22:03:01.768Z,101848.77
2019-01-21T22:05:31.395Z,101852.19
2019-01-21T22:08:00.944Z,101833.52
2019-01-21T22:10:31.385Z,101827.58
2019-01-21T22:13:00.965Z,101845.00
2019-01-21T22:15:30.587Z,101826.64
2019-01-21T22:18:00.159Z,101839.03
2019-01-21T22:20:29.656Z,101835.19
2019-01-21T22:22:59.203Z,101839.03
2019-01-21T22:25:28.720Z,101824.59
2019-01-21T22:27:58.258Z,101827.61
2019-01-21T22:30:28.956Z,101838.68
2019-01-21T22:32:59.960Z,101834.83
2019-01-21T22:35:29.847Z,101833.20
2019-01-21T22:37:59.358Z,101826.09
2019-01-21T22:40:29.172Z,101826.33
2019-01-21T22:42:58.676Z,101823.81
2019-01-21T22:45:28.196Z,101821.75
2019-01-21T22:47:58.175Z,101825.98
2019-01-21T22:50:27.856Z,101823.92
2019-01-21T22:52:58.796Z,101820.83
2019-01-21T22:55:28.303Z,101824.27
2019-01-21T22:57:57.807Z,101829.33
2019-01-21T23:00:49.962Z,101820.44
2019-01-21T23:03:19.531Z,101827.73
2019-01-21T23:05:49.148Z,101827.23
2019-01-21T23:08:18.710Z,101833.94
2019-01-21T23:10:48.238Z,101831.92
2019-01-21T23:13:17.752Z,101830.75
2019-01-21T23:15:47.308Z,101839.61
2019-01-21T23:18:16.832Z,101830.68
2019-01-21T23:20:46.321Z,101826.87
2019-01-21T23:23:15.875Z,101825.95
2019-01-21T23:25:45.408Z,101816.09
2019-01-21T23:28:14.970Z,101811.97
2019-01-21T23:30:44.464Z,101820.08
2019-01-21T23:33:13.981Z,101830.36
2019-01-21T23:35:43.583Z,101825.23
2019-01-21T23:38:13.107Z,101817.63
2019-01-21T23:40:42.611Z,101826.95
2019-01-21T23:43:12.177Z,101824.81
2019-01-21T23:45:41.685Z,101829.01
2019-01-21T23:48:11.304Z,101820.19
2019-01-21T23:50:41.018Z,101819.33
2019-01-21T23:53:10.605Z,101825.80
2019-01-21T23:55:40.124Z,101821.00
2019-01-21T23:58:09.676Z,101822.72
